createdAt,value
2018-09-11T00:00:42.619Z,1016.71
2018-09-11T00:01:42.622Z,1016.67
2018-09-11T00:02:42.593Z,1016.68
2018-09-11T00:03:42.581Z,1016.67
2018-09-11T00:04:42.561Z,1016.65
2018-09-11T00:05:42.551Z,1016.63
2018-09-11T00:06:42.736Z,1016.62
2018-09-11T00:07:42.520Z,1016.63
2018-09-11T00:08:42.527Z,1016.61
2018-09-11T00:09:42.507Z,1016.60
2018-09-11T00:10:42.475Z,1016.62
2018-09-11T00:11:42.475Z,1016.67
2018-09-11T00:12:42.442Z,1016.65
2018-09-11T00:13:42.452Z,1016.71
2018-09-11T00:14:42.436Z,1016.72
2018-09-11T00:15:42.398Z,1016.73
2018-09-11T00:16:42.385Z,1016.73
2018-09-11T00:17:42.374Z,1016.77
2018-09-11T00:18:42.354Z,1016.76
2018-09-11T00:19:42.340Z,1016.77
2018-09-11T00:20:42.326Z,1016.73
2018-09-11T00:21:42.310Z,1016.75
2018-09-11T00:22:42.296Z,1016.72
2018-09-11T00:23:42.282Z,1016.78
2018-09-11T00:24:42.267Z,1016.79
2018-09-11T00:25:42.251Z,1016.80
2018-09-11T00:26:42.234Z,1016.80
2018-09-11T00:27:42.220Z,1016.83
2018-09-11T00:28:42.205Z,1016.84
2018-09-11T00:29:42.193Z,1016.85
2018-09-11T00:30:42.176Z,1016.84
2018-09-11T00:31:42.171Z,1016.85
2018-09-11T00:32:42.145Z,1016.85
2018-09-11T00:33:42.137Z,1016.83
2018-09-11T00:34:42.114Z,1016.84
2018-09-11T00:35:42.105Z,1016.84
2018-09-11T00:36:42.089Z,1016.85
2018-09-11T00:37:42.075Z,1016.93
2018-09-11T00:38:42.055Z,1016.89
2018-09-11T00:39:42.042Z,1016.94
2018-09-11T00:40:42.026Z,1016.94
2018-09-11T00:41:42.017Z,1016.97
2018-09-11T00:42:41.995Z,1016.92
2018-09-11T00:43:41.979Z,1016.91
2018-09-11T00:44:41.971Z,1016.84
2018-09-11T00:45:41.955Z,1016.84
2018-09-11T00:46:41.956Z,1016.80
2018-09-11T00:47:41.922Z,1016.80
2018-09-11T00:48:41.907Z,1016.77
2018-09-11T00:49:41.895Z,1016.73
2018-09-11T00:50:41.877Z,1016.72
2018-09-11T00:51:41.899Z,1016.70
2018-09-11T00:52:41.847Z,1016.64
2018-09-11T00:53:41.832Z,1016.57
2018-09-11T00:54:41.816Z,1016.59
2018-09-11T00:55:41.805Z,1016.55
2018-09-11T00:56:41.787Z,1016.62
2018-09-11T00:57:41.772Z,1016.63
2018-09-11T00:58:41.760Z,1016.64
2018-09-11T00:59:41.741Z,1016.64
2018-09-11T01:00:41.730Z,1016.69
2018-09-11T01:01:41.713Z,1016.66
2018-09-11T01:02:41.699Z,1016.66
2018-09-11T01:03:41.682Z,1016.69
2018-09-11T01:04:41.669Z,1016.70
2018-09-11T01:05:41.652Z,1016.66
2018-09-11T01:06:41.638Z,1016.71
2018-09-11T01:07:41.625Z,1016.74
2018-09-11T01:08:41.610Z,1016.73
2018-09-11T01:09:41.608Z,1016.68
2018-09-11T01:10:41.580Z,1016.66
2018-09-11T01:11:41.563Z,1016.71
2018-09-11T01:12:41.550Z,1016.71
2018-09-11T01:13:41.532Z,1016.73
2018-09-11T01:14:41.520Z,1016.71
2018-09-11T01:15:41.502Z,1016.70
2018-09-11T01:16:41.487Z,1016.71
2018-09-11T01:17:41.474Z,1016.70
2018-09-11T01:18:41.460Z,1016.66
2018-09-11T01:19:41.441Z,1016.66
2018-09-11T01:20:41.444Z,1016.65
2018-09-11T01:21:41.414Z,1016.66
2018-09-11T01:22:41.396Z,1016.70
2018-09-11T01:23:41.382Z,1016.69
2018-09-11T01:24:41.368Z,1016.69
2018-09-11T01:25:41.421Z,1016.76
2018-09-11T01:26:41.338Z,1016.76
2018-09-11T01:27:41.323Z,1016.75
2018-09-11T01:28:41.313Z,1016.82
2018-09-11T01:29:41.291Z,1016.82
2018-09-11T01:30:41.275Z,1016.82
2018-09-11T01:31:41.262Z,1016.84
2018-09-11T01:32:41.246Z,1016.83
2018-09-11T01:33:41.236Z,1016.83
2018-09-11T01:34:41.217Z,1016.84
2018-09-11T01:35:41.207Z,1016.84
2018-09-11T01:36:41.186Z,1016.79
2018-09-11T01:37:41.171Z,1016.75
2018-09-11T01:38:41.158Z,1016.74
2018-09-11T01:39:41.141Z,1016.70
2018-09-11T01:40:41.125Z,1016.66
2018-09-11T01:41:41.112Z,1016.68
2018-09-11T01:42:41.100Z,1016.70
2018-09-11T01:43:41.081Z,1016.68
2018-09-11T01:44:41.067Z,1016.73
2018-09-11T01:45:41.055Z,1016.67
2018-09-11T01:46:41.039Z,1016.71
2018-09-11T01:47:41.022Z,1016.67
2018-09-11T01:48:41.011Z,1016.69
2018-09-11T01:49:40.989Z,1016.68
2018-09-11T01:50:40.976Z,1016.64
2018-09-11T01:51:40.962Z,1016.68
2018-09-11T01:52:40.951Z,1016.66
2018-09-11T01:53:40.934Z,1016.62
2018-09-11T01:54:40.921Z,1016.63
2018-09-11T01:55:40.902Z,1016.62
2018-09-11T01:56:40.887Z,1016.62
2018-09-11T01:57:40.871Z,1016.57
2018-09-11T01:58:40.855Z,1016.54
2018-09-11T01:59:40.840Z,1016.51
2018-09-11T02:00:41.030Z,1016.56
2018-09-11T02:01:41.435Z,1016.50
2018-09-11T02:02:40.794Z,1016.49
2018-09-11T02:03:41.184Z,1016.52
2018-09-11T02:04:40.764Z,1016.48
2018-09-11T02:05:40.750Z,1016.48
2018-09-11T02:06:40.740Z,1016.47
2018-09-11T02:07:40.719Z,1016.50
2018-09-11T02:08:40.704Z,1016.49
2018-09-11T02:09:40.692Z,1016.48
2018-09-11T02:10:40.673Z,1016.49
2018-09-11T02:11:40.658Z,1016.49
2018-09-11T02:12:40.644Z,1016.49
2018-09-11T02:13:40.631Z,1016.47
2018-09-11T02:14:40.620Z,1016.49
2018-09-11T02:15:40.597Z,1016.48
2018-09-11T02:16:40.590Z,1016.51
2018-09-11T02:17:40.568Z,1016.55
2018-09-11T02:18:40.555Z,1016.57
2018-09-11T02:19:40.536Z,1016.60
2018-09-11T02:20:40.521Z,1016.65
2018-09-11T02:21:40.509Z,1016.66
2018-09-11T02:22:40.491Z,1016.64
2018-09-11T02:23:40.477Z,1016.60
2018-09-11T02:24:40.461Z,1016.63
2018-09-11T02:25:40.448Z,1016.64
2018-09-11T02:26:40.432Z,1016.60
2018-09-11T02:27:40.414Z,1016.63
2018-09-11T02:28:40.403Z,1016.58
2018-09-11T02:29:40.385Z,1016.58
2018-09-11T02:30:40.373Z,1016.58
2018-09-11T02:31:40.358Z,1016.56
2018-09-11T02:32:40.340Z,1016.59
2018-09-11T02:33:40.327Z,1016.55
2018-09-11T02:34:40.309Z,1016.56
2018-09-11T02:35:40.337Z,1016.56
2018-09-11T02:36:40.279Z,1016.52
2018-09-11T02:37:40.263Z,1016.52
2018-09-11T02:38:40.249Z,1016.52
2018-09-11T02:39:40.235Z,1016.50
2018-09-11T02:40:40.222Z,1016.50
2018-09-11T02:41:40.202Z,1016.56
2018-09-11T02:42:40.187Z,1016.56
2018-09-11T02:43:40.172Z,1016.59
2018-09-11T02:44:40.158Z,1016.54
2018-09-11T02:45:40.142Z,1016.58
2018-09-11T02:46:40.127Z,1016.57
2018-09-11T02:47:40.113Z,1016.59
2018-09-11T02:48:40.094Z,1016.60
2018-09-11T02:49:40.080Z,1016.60
2018-09-11T02:50:40.065Z,1016.58
2018-09-11T02:51:40.049Z,1016.58
2018-09-11T02:52:40.034Z,1016.61
2018-09-11T02:53:40.017Z,1016.58
2018-09-11T02:54:40.003Z,1016.57
2018-09-11T02:55:39.989Z,1016.59
2018-09-11T02:56:39.972Z,1016.59
2018-09-11T02:57:39.956Z,1016.59
2018-09-11T02:58:39.942Z,1016.55
2018-09-11T02:59:39.927Z,1016.60
2018-09-11T03:00:39.913Z,1016.56
2018-09-11T03:01:39.898Z,1016.55
2018-09-11T03:02:39.879Z,1016.56
2018-09-11T03:03:39.868Z,1016.56
2018-09-11T03:04:39.851Z,1016.59
2018-09-11T03:05:39.834Z,1016.61
2018-09-11T03:06:39.818Z,1016.59
2018-09-11T03:07:39.804Z,1016.57
2018-09-11T03:08:39.788Z,1016.60
2018-09-11T03:09:39.782Z,1016.65
2018-09-11T03:10:39.761Z,1016.67
2018-09-11T03:11:39.742Z,1016.71
2018-09-11T03:12:39.728Z,1016.72
2018-09-11T03:13:39.708Z,1016.72
2018-09-11T03:14:39.697Z,1016.73
2018-09-11T03:15:39.679Z,1016.73
2018-09-11T03:16:39.669Z,1016.69
2018-09-11T03:17:39.650Z,1016.70
2018-09-11T03:18:39.646Z,1016.64
2018-09-11T03:19:39.622Z,1016.68
2018-09-11T03:20:39.603Z,1016.66
2018-09-11T03:21:39.592Z,1016.63
2018-09-11T03:22:39.571Z,1016.66
2018-09-11T03:23:39.557Z,1016.64
2018-09-11T03:24:39.542Z,1016.66
2018-09-11T03:25:39.525Z,1016.67
2018-09-11T03:26:39.514Z,1016.66
2018-09-11T03:27:39.496Z,1016.69
2018-09-11T03:28:39.479Z,1016.70
2018-09-11T03:29:39.467Z,1016.74
2018-09-11T03:30:39.454Z,1016.72
2018-09-11T03:31:39.434Z,1016.76
2018-09-11T03:32:39.417Z,1016.81
2018-09-11T03:33:39.402Z,1016.81
2018-09-11T03:34:39.386Z,1016.80
2018-09-11T03:35:39.372Z,1016.85
2018-09-11T03:36:39.357Z,1016.84
2018-09-11T03:37:39.340Z,1016.88
2018-09-11T03:38:39.324Z,1016.91
2018-09-11T03:39:39.309Z,1016.91
2018-09-11T03:40:39.332Z,1016.92
2018-09-11T03:41:39.281Z,1016.87
2018-09-11T03:42:39.263Z,1016.86
2018-09-11T03:43:39.247Z,1016.91
2018-09-11T03:44:39.233Z,1016.88
2018-09-11T03:45:39.217Z,1016.88
2018-09-11T03:46:39.201Z,1016.89
2018-09-11T03:47:39.189Z,1016.87
2018-09-11T03:48:39.173Z,1016.83
2018-09-11T03:49:39.161Z,1016.82
2018-09-11T03:50:39.142Z,1016.80
2018-09-11T03:51:39.124Z,1016.84
2018-09-11T03:52:39.110Z,1016.86
2018-09-11T03:53:39.094Z,1016.83
2018-09-11T03:54:39.078Z,1016.84
2018-09-11T03:55:39.064Z,1016.79
2018-09-11T03:56:39.050Z,1016.82
2018-09-11T03:57:39.034Z,1016.83
2018-09-11T03:58:39.017Z,1016.85
2018-09-11T03:59:39.003Z,1016.84
2018-09-11T04:00:43.024Z,1016.86
2018-09-11T04:01:38.972Z,1016.86
2018-09-11T04:02:38.957Z,1016.89
2018-09-11T04:03:38.941Z,1016.88
2018-09-11T04:04:38.925Z,1016.89
2018-09-11T04:05:39.000Z,1016.87
2018-09-11T04:06:38.899Z,1016.84
2018-09-11T04:07:38.879Z,1016.85
2018-09-11T04:08:38.863Z,1016.83
2018-09-11T04:09:38.848Z,1016.80
2018-09-11T04:10:38.832Z,1016.84
2018-09-11T04:11:38.819Z,1016.81
2018-09-11T04:12:38.804Z,1016.85
2018-09-11T04:13:38.786Z,1016.86
2018-09-11T04:14:38.768Z,1016.84
2018-09-11T04:15:38.755Z,1016.90
2018-09-11T04:16:38.741Z,1016.90
2018-09-11T04:17:38.724Z,1016.94
2018-09-11T04:18:38.709Z,1016.97
2018-09-11T04:19:38.692Z,1016.96
2018-09-11T04:20:38.677Z,1016.91
2018-09-11T04:21:38.661Z,1016.91
2018-09-11T04:22:39.861Z,1016.94
2018-09-11T04:23:38.631Z,1016.94
2018-09-11T04:24:38.617Z,1016.89
2018-09-11T04:25:38.711Z,1016.88
2018-09-11T04:26:38.590Z,1016.93
2018-09-11T04:27:38.573Z,1016.92
2018-09-11T04:28:38.557Z,1016.91
2018-09-11T04:29:38.547Z,1016.90
2018-09-11T04:30:38.524Z,1016.88
2018-09-11T04:31:38.504Z,1016.90
2018-09-11T04:32:38.486Z,1016.94
2018-09-11T04:33:38.479Z,1016.94
2018-09-11T04:34:38.454Z,1016.92
2018-09-11T04:35:38.440Z,1016.92
2018-09-11T04:36:38.426Z,1016.95
2018-09-11T04:37:38.406Z,1016.88
2018-09-11T04:38:38.387Z,1016.85
2018-09-11T04:39:38.371Z,1016.86
2018-09-11T04:40:38.359Z,1016.85
2018-09-11T04:41:38.337Z,1016.85
2018-09-11T04:42:38.321Z,1016.82
2018-09-11T04:43:38.305Z,1016.83
2018-09-11T04:44:38.288Z,1016.82
2018-09-11T04:45:38.271Z,1016.82
2018-09-11T04:46:38.257Z,1016.85
2018-09-11T04:47:38.238Z,1016.82
2018-09-11T04:48:38.224Z,1016.81
2018-09-11T04:49:38.211Z,1016.80
2018-09-11T04:50:38.187Z,1016.80
2018-09-11T04:51:38.191Z,1016.81
2018-09-11T04:52:38.153Z,1016.79
2018-09-11T04:53:38.140Z,1016.84
2018-09-11T04:54:38.116Z,1016.80
2018-09-11T04:55:38.099Z,1016.81
2018-09-11T04:56:38.086Z,1016.78
2018-09-11T04:57:38.068Z,1016.78
2018-09-11T04:58:38.048Z,1016.79
2018-09-11T04:59:38.033Z,1016.78
2018-09-11T05:00:38.013Z,1016.80
2018-09-11T05:01:37.999Z,1016.77
2018-09-11T05:02:37.991Z,1016.77
2018-09-11T05:03:37.962Z,1016.79
2018-09-11T05:04:37.946Z,1016.78
2018-09-11T05:05:37.932Z,1016.76
2018-09-11T05:06:37.964Z,1016.74
2018-09-11T05:07:37.899Z,1016.74
2018-09-11T05:08:37.876Z,1016.76
2018-09-11T05:09:37.864Z,1016.73
2018-09-11T05:10:37.841Z,1016.72
2018-09-11T05:11:37.824Z,1016.72
2018-09-11T05:12:37.809Z,1016.71
2018-09-11T05:13:37.793Z,1016.73
2018-09-11T05:14:37.774Z,1016.73
2018-09-11T05:15:37.755Z,1016.70
2018-09-11T05:16:37.741Z,1016.71
2018-09-11T05:17:37.721Z,1016.68
2018-09-11T05:18:37.707Z,1016.68
2018-09-11T05:19:37.690Z,1016.71
2018-09-11T05:20:37.673Z,1016.70
2018-09-11T05:21:37.654Z,1016.71
2018-09-11T05:22:37.634Z,1016.71
2018-09-11T05:23:37.623Z,1016.77
2018-09-11T05:24:37.606Z,1016.75
2018-09-11T05:25:37.585Z,1016.76
2018-09-11T05:26:37.570Z,1016.76
2018-09-11T05:27:37.549Z,1016.71
2018-09-11T05:28:37.534Z,1016.68
2018-09-11T05:29:37.517Z,1016.69
2018-09-11T05:30:37.496Z,1016.71
2018-09-11T05:31:37.480Z,1016.70
2018-09-11T05:32:37.467Z,1016.68
2018-09-11T05:33:37.456Z,1016.72
2018-09-11T05:34:37.432Z,1016.70
2018-09-11T05:35:37.411Z,1016.72
2018-09-11T05:36:37.394Z,1016.70
2018-09-11T05:37:37.377Z,1016.71
2018-09-11T05:38:37.360Z,1016.71
2018-09-11T05:39:37.346Z,1016.71
2018-09-11T05:40:37.326Z,1016.71
2018-09-11T05:41:37.317Z,1016.69
2018-09-11T05:44:54.881Z,1016.73
2018-09-11T05:45:54.863Z,1016.71
2018-09-11T05:46:54.851Z,1016.72
2018-09-11T05:47:54.827Z,1016.71
2018-09-11T05:48:54.809Z,1016.76
2018-09-11T05:49:54.795Z,1016.78
2018-09-11T05:50:54.773Z,1016.80
2018-09-11T05:51:54.757Z,1016.79
2018-09-11T05:52:54.737Z,1016.77
2018-09-11T05:53:54.722Z,1016.81
2018-09-11T05:54:54.708Z,1016.77
2018-09-11T05:55:54.688Z,1016.78
2018-09-11T05:56:54.675Z,1016.82
2018-09-11T05:57:54.660Z,1016.81
2018-09-11T05:58:54.637Z,1016.80
2018-09-11T05:59:54.620Z,1016.78
2018-09-11T06:00:54.604Z,1016.78
2018-09-11T06:01:54.585Z,1016.77
2018-09-11T06:02:54.567Z,1016.80
2018-09-11T06:03:54.550Z,1016.76
2018-09-11T06:04:54.541Z,1016.78
2018-09-11T06:05:54.521Z,1016.76
2018-09-11T06:06:54.500Z,1016.79
2018-09-11T06:07:54.482Z,1016.75
2018-09-11T06:08:54.463Z,1016.81
2018-09-11T06:09:54.451Z,1016.79
2018-09-11T06:10:54.434Z,1016.81
2018-09-11T06:11:54.413Z,1016.85
2018-09-11T06:12:54.399Z,1016.84
2018-09-11T06:13:54.378Z,1016.89
2018-09-11T06:14:54.367Z,1016.88
2018-09-11T06:15:54.347Z,1016.83
2018-09-11T06:16:54.327Z,1016.89
2018-09-11T06:17:54.313Z,1016.83
2018-09-11T06:18:54.294Z,1016.82
2018-09-11T06:19:54.277Z,1016.84
2018-09-11T06:20:54.272Z,1016.85
2018-09-11T06:21:54.244Z,1016.79
2018-09-11T06:22:54.229Z,1016.79
2018-09-11T06:23:54.208Z,1016.81
2018-09-11T06:24:54.191Z,1016.86
2018-09-11T06:25:54.235Z,1016.84
2018-09-11T06:26:54.159Z,1016.87
2018-09-11T06:27:54.146Z,1016.88
2018-09-11T06:28:54.128Z,1016.90
2018-09-11T06:29:54.112Z,1016.85
2018-09-11T06:30:54.096Z,1016.87
2018-09-11T06:31:54.073Z,1016.84
2018-09-11T06:32:54.061Z,1016.84
2018-09-11T06:33:54.040Z,1016.82
2018-09-11T06:34:54.024Z,1016.81
2018-09-11T06:35:54.010Z,1016.84
2018-09-11T06:36:54.000Z,1016.84
2018-09-11T06:37:53.978Z,1016.84
2018-09-11T06:38:53.964Z,1016.85
2018-09-11T06:39:53.943Z,1016.83
2018-09-11T06:40:53.927Z,1016.88
2018-09-11T06:41:53.909Z,1016.89
2018-09-11T06:42:53.890Z,1016.88
2018-09-11T06:43:53.883Z,1016.92
2018-09-11T06:44:53.860Z,1016.96
2018-09-11T06:45:53.840Z,1016.97
2018-09-11T06:46:53.846Z,1016.98
2018-09-11T06:47:53.808Z,1016.97
2018-09-11T06:48:53.795Z,1017.02
2018-09-11T06:49:53.773Z,1016.99
2018-09-11T06:50:53.760Z,1017.01
2018-09-11T06:51:53.737Z,1016.93
2018-09-11T06:52:53.726Z,1016.88
2018-09-11T06:53:53.705Z,1016.88
2018-09-11T06:54:53.748Z,1016.90
2018-09-11T06:55:53.677Z,1016.90
2018-09-11T06:56:53.657Z,1016.87
2018-09-11T06:57:53.639Z,1016.93
2018-09-11T06:58:53.628Z,1016.87
2018-09-11T06:59:53.605Z,1016.85
2018-09-11T07:00:53.594Z,1016.81
2018-09-11T07:01:53.623Z,1016.80
2018-09-11T07:02:53.566Z,1016.81
2018-09-11T07:03:53.539Z,1016.83
2018-09-11T07:04:53.523Z,1016.87
2018-09-11T07:05:53.507Z,1016.86
2018-09-11T07:06:53.491Z,1016.86
2018-09-11T07:07:53.477Z,1016.82
2018-09-11T07:08:53.465Z,1016.78
2018-09-11T07:09:53.444Z,1016.76
2018-09-11T07:10:53.427Z,1016.75
2018-09-11T07:11:53.409Z,1016.74
2018-09-11T07:12:53.397Z,1016.73
2018-09-11T07:13:53.381Z,1016.74
2018-09-11T07:14:53.359Z,1016.81
2018-09-11T07:15:53.343Z,1016.79
2018-09-11T07:16:53.327Z,1016.76
2018-09-11T07:17:53.320Z,1016.84
2018-09-11T07:18:53.298Z,1016.82
2018-09-11T07:19:53.389Z,1016.79
2018-09-11T07:20:53.265Z,1016.80
2018-09-11T07:21:53.245Z,1016.80
2018-09-11T07:22:53.234Z,1016.89
2018-09-11T07:23:53.214Z,1017.07
2018-09-11T07:24:53.200Z,1017.16
2018-09-11T07:25:53.207Z,1017.10
2018-09-11T07:26:53.170Z,1016.99
2018-09-11T07:27:53.154Z,1017.05
2018-09-11T07:28:53.132Z,1017.06
2018-09-11T07:31:35.629Z,1017.81
2018-09-11T07:32:35.616Z,1017.79
2018-09-11T07:33:35.598Z,1017.87
2018-09-11T07:34:35.588Z,1018.18
2018-09-11T07:35:35.568Z,1018.03
2018-09-11T07:36:35.554Z,1019.51
2018-09-11T07:37:35.539Z,1019.93
2018-09-11T07:38:35.525Z,1019.34
2018-09-11T07:39:35.509Z,1019.01
2018-09-11T07:40:35.494Z,1021.21
2018-09-11T07:41:35.481Z,1022.60
2018-09-11T07:42:35.465Z,1023.83
2018-09-11T07:43:35.450Z,1022.74
2018-09-11T07:44:35.440Z,1025.38
2018-09-11T07:45:35.503Z,1025.45
2018-09-11T07:46:35.411Z,1023.49
2018-09-11T07:47:38.828Z,1025.84
2018-09-11T07:48:35.391Z,1026.02
2018-09-11T07:49:35.376Z,1027.01
2018-09-11T07:50:35.363Z,1028.72
2018-09-11T07:51:35.353Z,1027.97
2018-09-11T07:52:35.493Z,1023.09
2018-09-11T07:53:35.327Z,1021.85
2018-09-11T07:54:35.318Z,1021.56
2018-09-11T07:55:35.309Z,1020.96
2018-09-11T07:56:35.293Z,1019.35
2018-09-11T07:57:35.303Z,1019.93
2018-09-11T07:58:35.271Z,1021.28
2018-09-11T07:59:35.274Z,1021.58
2018-09-11T08:00:35.256Z,1024.66
2018-09-11T08:01:35.246Z,1024.58
2018-09-11T08:02:35.235Z,1020.37
2018-09-11T08:03:35.222Z,1019.68
2018-09-11T08:04:35.212Z,1020.70
2018-09-11T08:05:35.203Z,1021.26
2018-09-11T08:06:35.191Z,1024.81
2018-09-11T08:07:35.191Z,1023.34
2018-09-11T08:08:35.175Z,1024.49
2018-09-11T08:09:35.180Z,1019.36
2018-09-11T08:10:35.155Z,1018.30
2018-09-11T08:11:35.149Z,1018.28
2018-09-11T08:12:35.138Z,1020.39
2018-09-11T08:13:35.126Z,1027.67
2018-09-11T08:14:35.122Z,1025.95
2018-09-11T08:15:35.110Z,1028.94
2018-09-11T08:16:35.104Z,1021.42
2018-09-11T08:17:35.097Z,1029.73
2018-09-11T08:18:35.083Z,1021.06
2018-09-11T08:19:35.078Z,1018.38
2018-09-11T08:20:35.067Z,1018.51
2018-09-11T08:21:35.062Z,1019.19
2018-09-11T08:22:35.051Z,1021.44
2018-09-11T08:23:35.044Z,1018.61
2018-09-11T08:24:35.037Z,1018.46
2018-09-11T08:25:35.027Z,1032.61
2018-09-11T08:26:35.019Z,1034.49
2018-09-11T08:27:35.011Z,1031.41
2018-09-11T08:28:35.003Z,1031.61
2018-09-11T08:29:34.996Z,1031.64
2018-09-11T08:30:34.987Z,1032.08
2018-09-11T08:31:34.980Z,1032.89
2018-09-11T08:32:34.973Z,1033.37
2018-09-11T08:33:34.966Z,1033.69
2018-09-11T08:34:34.959Z,1033.48
2018-09-11T08:35:34.952Z,1032.66
2018-09-11T08:36:34.946Z,1031.16
2018-09-11T08:37:34.939Z,1030.24
2018-09-11T08:38:34.936Z,1028.24
2018-09-11T08:39:34.926Z,1029.10
2018-09-11T08:40:34.920Z,1029.64
2018-09-11T08:41:34.915Z,1029.14
2018-09-11T08:42:34.907Z,1028.67
2018-09-11T08:43:34.909Z,1027.48
2018-09-11T08:44:34.898Z,1027.60
2018-09-11T08:45:34.891Z,1026.15
2018-09-11T08:46:34.896Z,1025.28
2018-09-11T08:47:34.880Z,1027.16
2018-09-11T08:48:34.876Z,1026.45
2018-09-11T08:49:34.876Z,1026.22
2018-09-11T08:50:34.864Z,1024.38
2018-09-11T08:51:34.863Z,1023.91
2018-09-11T08:52:34.934Z,1023.27
2018-09-11T08:53:34.851Z,1023.57
2018-09-11T08:54:34.848Z,1023.34
2018-09-11T08:55:34.840Z,1017.88
2018-09-11T08:56:34.837Z,1024.01
2018-09-11T08:57:34.834Z,1023.99
2018-09-11T08:58:34.861Z,1023.56
2018-09-11T08:59:34.823Z,1022.46
2018-09-11T09:00:34.824Z,1022.15
2018-09-11T09:01:34.815Z,1022.37
2018-09-11T09:02:34.810Z,1021.65
2018-09-11T09:03:34.805Z,1019.69
2018-09-11T09:04:34.804Z,1019.04
2018-09-11T09:05:34.798Z,1017.12
2018-09-11T09:06:34.798Z,1018.85
2018-09-11T09:07:34.789Z,1018.74
2018-09-11T09:08:34.786Z,1019.06
2018-09-11T09:09:34.787Z,1018.14
2018-09-11T09:10:34.781Z,1018.65
2018-09-11T09:11:34.772Z,1018.30
2018-09-11T09:12:34.771Z,1017.95
2018-09-11T09:13:34.770Z,1018.02
2018-09-11T09:14:34.762Z,1018.00
2018-09-11T09:15:34.797Z,1017.73
2018-09-11T09:16:34.753Z,1017.68
2018-09-11T09:17:34.749Z,1017.64
2018-09-11T09:18:34.743Z,1017.64
2018-09-11T09:19:34.740Z,1017.40
2018-09-11T09:20:34.738Z,1017.20
2018-09-11T09:21:34.732Z,1017.26
2018-09-11T09:22:34.726Z,1017.23
2018-09-11T09:23:34.723Z,1017.11
2018-09-11T09:24:34.720Z,1017.10
2018-09-11T09:25:34.713Z,1017.06
2018-09-11T09:26:34.711Z,1017.01
2018-09-11T09:27:34.754Z,1017.04
2018-09-11T09:28:34.707Z,1017.07
2018-09-11T09:29:34.698Z,1017.07
2018-09-11T09:30:34.692Z,1017.19
2018-09-11T09:31:34.695Z,1017.27
2018-09-11T09:32:34.685Z,1017.45
2018-09-11T09:33:34.680Z,1017.44
2018-09-11T09:34:34.677Z,1017.26
2018-09-11T09:35:34.677Z,1017.13
2018-09-11T09:36:34.704Z,1017.00
2018-09-11T09:37:34.665Z,1016.93
2018-09-11T09:38:34.663Z,1016.91
2018-09-11T09:39:34.657Z,1016.85
2018-09-11T09:40:34.656Z,1016.82
2018-09-11T09:41:34.652Z,1016.78
2018-09-11T09:42:34.644Z,1016.75
2018-09-11T09:43:34.638Z,1016.72
2018-09-11T09:44:34.638Z,1016.56
2018-09-11T09:45:34.630Z,1016.60
2018-09-11T09:46:34.625Z,1016.57
2018-09-11T09:47:34.620Z,1016.60
2018-09-11T09:48:34.619Z,1016.65
2018-09-11T09:49:34.613Z,1016.53
2018-09-11T09:50:34.606Z,1016.43
2018-09-11T09:51:34.601Z,1016.36
2018-09-11T09:52:34.601Z,1016.23
2018-09-11T09:53:34.593Z,1016.17
2018-09-11T09:54:34.586Z,1016.23
2018-09-11T09:55:34.583Z,1016.24
2018-09-11T09:56:34.578Z,1016.23
2018-09-11T09:57:34.573Z,1016.17
2018-09-11T09:58:34.568Z,1016.16
2018-09-11T09:59:34.558Z,1016.25
2018-09-11T10:00:34.552Z,1016.23
2018-09-11T10:01:34.553Z,1016.26
2018-09-11T10:02:34.541Z,1016.17
2018-09-11T10:03:34.541Z,1016.20
2018-09-11T10:04:34.530Z,1016.15
2018-09-11T10:05:34.524Z,1016.09
2018-09-11T10:06:34.518Z,1016.15
2018-09-11T10:07:34.512Z,1016.10
2018-09-11T10:08:34.506Z,1016.15
2018-09-11T10:09:34.501Z,1016.21
2018-09-11T10:10:34.492Z,1016.12
2018-09-11T10:11:34.512Z,1016.15
2018-09-11T10:12:34.481Z,1016.16
2018-09-11T10:13:34.477Z,1016.18
2018-09-11T10:14:34.467Z,1016.09
2018-09-11T10:15:34.460Z,1016.20
2018-09-11T10:16:34.458Z,1016.29
2018-09-11T10:17:34.489Z,1016.39
2018-09-11T10:18:34.439Z,1016.41
2018-09-11T10:19:34.434Z,1016.50
2018-09-11T10:20:34.429Z,1016.45
2018-09-11T10:21:34.419Z,1016.45
2018-09-11T10:22:34.412Z,1016.52
2018-09-11T10:23:34.404Z,1016.54
2018-09-11T10:24:34.397Z,1016.60
2018-09-11T10:25:34.390Z,1016.72
2018-09-11T10:26:34.382Z,1016.59
2018-09-11T10:27:34.405Z,1016.56
2018-09-11T10:28:34.371Z,1016.70
2018-09-11T10:29:34.366Z,1016.51
2018-09-11T10:30:34.355Z,1016.53
2018-09-11T10:31:34.348Z,1016.79
2018-09-11T10:32:34.342Z,1016.68
2018-09-11T10:33:34.359Z,1016.79
2018-09-11T10:34:34.329Z,1016.92
2018-09-11T10:35:34.323Z,1017.22
2018-09-11T10:36:34.317Z,1017.13
2018-09-11T10:37:34.316Z,1017.07
2018-09-11T10:38:34.306Z,1017.13
2018-09-11T10:39:34.326Z,1016.84
2018-09-11T10:40:34.289Z,1017.17
2018-09-11T10:41:34.289Z,1017.27
2018-09-11T10:42:34.278Z,1017.27
2018-09-11T10:43:34.274Z,1017.45
2018-09-11T10:44:34.269Z,1017.40
2018-09-11T10:45:34.263Z,1017.42
2018-09-11T10:46:34.256Z,1017.29
2018-09-11T10:47:34.251Z,1017.21
2018-09-11T10:48:34.246Z,1017.23
2018-09-11T10:49:34.240Z,1017.38
2018-09-11T10:50:34.236Z,1017.11
2018-09-11T10:51:34.232Z,1017.12
2018-09-11T10:52:34.225Z,1017.22
2018-09-11T10:53:34.221Z,1017.15
2018-09-11T10:54:34.219Z,1017.24
2018-09-11T10:55:34.211Z,1017.29
2018-09-11T10:56:34.209Z,1017.16
2018-09-11T10:57:34.205Z,1017.05
2018-09-11T10:58:34.203Z,1017.06
2018-09-11T10:59:34.196Z,1017.14
2018-09-11T11:00:34.289Z,1017.13
2018-09-11T11:01:34.188Z,1017.05
2018-09-11T11:02:34.184Z,1017.11
2018-09-11T11:03:34.183Z,1017.11
2018-09-11T11:04:34.178Z,1016.99
2018-09-11T11:05:34.178Z,1016.89
2018-09-11T11:06:34.171Z,1017.15
2018-09-11T11:07:34.167Z,1017.02
2018-09-11T11:08:34.167Z,1017.15
2018-09-11T11:09:34.163Z,1017.00
2018-09-11T11:10:34.157Z,1017.18
2018-09-11T11:11:34.155Z,1017.22
2018-09-11T11:12:34.150Z,1016.61
2018-09-11T11:13:34.149Z,1016.91
2018-09-11T11:14:34.146Z,1016.92
2018-09-11T11:15:34.141Z,1016.73
2018-09-11T11:16:34.140Z,1016.97
2018-09-11T11:17:34.135Z,1017.02
2018-09-11T11:18:34.133Z,1017.14
2018-09-11T11:19:34.131Z,1017.05
2018-09-11T11:20:34.135Z,1016.92
2018-09-11T11:21:34.129Z,1016.77
2018-09-11T11:22:34.127Z,1016.52
2018-09-11T11:23:34.121Z,1016.54
2018-09-11T11:24:34.121Z,1016.66
2018-09-11T11:25:34.119Z,1016.52
2018-09-11T11:26:34.118Z,1016.46
2018-09-11T11:27:34.110Z,1016.49
2018-09-11T11:28:34.107Z,1016.34
2018-09-11T11:29:34.106Z,1016.37
2018-09-11T11:30:34.102Z,1016.36
2018-09-11T11:31:34.099Z,1016.43
2018-09-11T11:32:34.101Z,1016.37
2018-09-11T11:33:34.096Z,1016.25
2018-09-11T11:34:34.091Z,1016.18
2018-09-11T11:35:34.086Z,1016.18
2018-09-11T11:36:34.150Z,1016.12
2018-09-11T11:37:34.097Z,1016.17
2018-09-11T11:38:34.079Z,1016.24
2018-09-11T11:39:34.078Z,1016.33
2018-09-11T11:40:34.074Z,1016.18
2018-09-11T11:41:34.069Z,1016.15
2018-09-11T11:42:34.067Z,1016.34
2018-09-11T11:43:34.063Z,1016.28
2018-09-11T11:44:34.061Z,1016.07
2018-09-11T11:45:34.057Z,1016.02
2018-09-11T11:46:34.053Z,1015.94
2018-09-11T11:47:34.053Z,1015.94
2018-09-11T11:48:34.046Z,1015.87
2018-09-11T11:49:34.043Z,1015.81
2018-09-11T11:50:34.046Z,1015.76
2018-09-11T11:51:34.036Z,1015.75
2018-09-11T11:52:34.036Z,1015.78
2018-09-11T11:53:34.031Z,1015.78
2018-09-11T11:54:34.030Z,1015.76
2018-09-11T11:55:34.023Z,1015.77
2018-09-11T11:56:34.021Z,1015.81
2018-09-11T11:57:34.024Z,1015.95
2018-09-11T11:58:34.019Z,1016.09
2018-09-11T11:59:34.008Z,1016.11
2018-09-11T12:00:34.004Z,1016.11
2018-09-11T12:01:34.124Z,1016.07
2018-09-11T12:02:33.997Z,1016.04
2018-09-11T12:03:33.994Z,1016.14
2018-09-11T12:04:33.986Z,1016.18
2018-09-11T12:05:33.983Z,1016.23
2018-09-11T12:06:33.981Z,1016.15
2018-09-11T12:07:33.983Z,1016.11
2018-09-11T12:08:33.972Z,1016.12
2018-09-11T12:09:33.970Z,1016.11